Ana Sayfa
METAR-TAF:

METAR-TAF

Havaalanları :

Tokat Havalimanı

Tokat, Türkiye

Enlem: 40-18N, Boylam: 036-34E, yükseklik: 608 m

METAR: eksik

Saat: 16:12 (13:12 UTC)

Tahmin

Rapor saat 10:40 UTC de 2 saat ve 32 dakika önce yapıldı.
Ayın 26'si saat 12 UTC'den ayın 26'si saat 21 UTC'ye kadar geçerli Tahmin
Rüzgar batı/güneybatıdan 8 kt
Görüş mesafesi 10 km veya daha fazla
4000 ft yükseklikte parçalı bulutlu
Geçici
ayın 26'si saat 12 UTC'den ayın 26'si saat 15 UTC'ye kadar
3000 ft yükseklikte az bulutlu, Kümülonimbus.
3500 ft yükseklikte parçalı çok bulutlu
gök gürültülü fırtına, hafif yağmur

TAF: LTAW 261040Z 2612/2621 25008KT 9999 SCT040 TEMPO 2612/2615 -TSRA FEW030CB BKN035

4.000'den fazla havaalanı için hava durumu gözlemleri ve tahminleri (METAR ve TAF raporları).

Kullanılabilir istasyonlar harita üzerinde sarı ve kırmızı noktalarla gösterilir.

İstasyonun adını görmek için fareyi noktanın üzerinde gezdirin.

Sonrasında hava gözlem ve tahminlerini görmek için tıklayın.

Haritayı değiştirmek için: yaklaştırmak için siyah artı işaretli yeşil düğmeye ve uzaklaştırmak için de eksi işaretli düğmeye hızla tıklayın; bitişik haritalar için yeşil okları kullanın.


METAR-TAF: